TimeEDT,TemperatureF,Dew PointF,Humidity,Sea Level PressureIn,VisibilityMPH,Wind Direction,Wind SpeedMPH,Gust SpeedMPH,PrecipitationIn,Events,Conditions,WindDirDegrees,DateUTC
12:53 AM,60.1,39.9,47,29.93,10.0,West,3.5,-,N/A,,Clear,270,2014-05-04 04:53:00
1:53 AM,59.0,39.9,49,29.93,10.0,WSW,5.8,-,N/A,,Clear,250,2014-05-04 05:53:00
2:53 AM,61.0,37.9,42,29.92,10.0,WSW,3.5,-,N/A,,Clear,250,2014-05-04 06:53:00
3:53 AM,61.0,37.0,41,29.93,10.0,Calm,Calm,-,N/A,,Clear,0,2014-05-04 07:53:00
4:53 AM,57.9,37.0,46,29.94,10.0,Calm,Calm,-,N/A,,Clear,0,2014-05-04 08:53:00
5:53 AM,54.0,39.9,59,29.95,10.0,Calm,Calm,-,N/A,,Clear,0,2014-05-04 09:53:00
6:53 AM,57.0,37.9,49,29.97,10.0,Calm,Calm,-,N/A,,Clear,0,2014-05-04 10:53:00
7:53 AM,60.1,45.0,57,29.98,10.0,Calm,Calm,-,N/A,,Clear,0,2014-05-04 11:53:00
8:53 AM,66.0,44.1,45,29.97,10.0,SSW,3.5,-,N/A,,Clear,200,2014-05-04 12:53:00
9:53 AM,70.0,43.0,38,29.97,10.0,WSW,9.2,-,N/A,,Clear,240,2014-05-04 13:53:00
10:53 AM,75.0,46.0,36,29.97,10.0,Variable,4.6,-,N/A,,Clear,0,2014-05-04 14:53:00
11:53 AM,77.0,45.0,32,29.95,10.0,WSW,9.2,-,N/A,,Clear,240,2014-05-04 15:53:00
12:53 PM,81.0,43.0,26,29.92,10.0,West,13.8,21.9,N/A,,Clear,270,2014-05-04 16:53:00
1:53 PM,82.9,45.0,26,29.89,10.0,West,11.5,26.5,N/A,,Clear,260,2014-05-04 17:53:00
2:53 PM,84.9,42.1,22,29.87,10.0,WNW,10.4,17.3,N/A,,Partly Cloudy,300,2014-05-04 18:53:00
3:53 PM,86.0,39.9,20,29.84,10.0,WNW,10.4,21.9,N/A,,Clear,290,2014-05-04 19:53:00
4:53 PM,86.0,39.0,19,29.84,10.0,West,12.7,25.3,N/A,,Clear,280,2014-05-04 20:53:00
5:53 PM,84.0,39.9,21,29.84,10.0,WNW,11.5,25.3,N/A,,Clear,300,2014-05-04 21:53:00
6:53 PM,82.0,43.0,25,29.84,10.0,West,9.2,-,N/A,,Clear,280,2014-05-04 22:53:00
7:53 PM,78.1,44.1,30,29.86,10.0,West,8.1,-,N/A,,Clear,270,2014-05-04 23:53:00
8:53 PM,73.9,44.1,34,29.87,10.0,West,3.5,-,N/A,,Clear,270,2014-05-05 00:53:00
9:53 PM,70.0,46.0,42,29.87,10.0,SSW,3.5,-,N/A,,Clear,210,2014-05-05 01:53:00
10:53 PM,71.1,44.1,38,29.87,10.0,SW,5.8,-,N/A,,Clear,230,2014-05-05 02:53:00
11:53 PM,70.0,44.1,39,29.88,10.0,Calm,Calm,-,N/A,,Clear,0,2014-05-05 03:53:00